Time;durP1;ratioP1;P1;durP2;ratioP2;P2;SDS_P1;SDS_P2;PMS_P1;PMS_P2;Temp;Humidity;BMP_temperature;BMP_pressure;BME280_temperature;BME280_humidity;BME280_pressure;Samples;Min_cycle;Max_cycle;Signal;HPM_P1;HPM_P2
2021/03/28 00:00:28;;;;;;;;;;;;;;;18.83;38.54;102198.75;2115450;28;1226;-38
2021/03/28 00:01:29;;;;;;;;;;;;;;;19.08;38.91;102204.09;2111298;28;2138;-37
2021/03/28 00:02:29;;;;;;;;;;;;;;;19.25;38.61;102200.69;2115324;28;1546;-36
2021/03/28 00:03:30;;;;;;;;;;;;;;;19.35;38.41;102196.84;2109680;28;4114;-39
2021/03/28 00:04:31;;;;;;;;;;;;;;;19.40;38.44;102191.09;2115039;28;1621;-38
2021/03/28 00:05:31;;;;;;;;;;;;;;;19.44;38.31;102194.19;2115781;28;1098;-37
2021/03/28 00:06:32;;;;;;;;;;;;;;;19.42;38.39;102194.47;2115082;28;1982;-34
2021/03/28 00:07:33;;;;;;;;;;;;;;;19.44;38.16;102192.19;2111413;28;3886;-38
2021/03/28 00:08:34;;;;;;;;;;;;;;;19.45;38.08;102191.00;2109023;28;2382;-38
2021/03/28 00:09:34;;;;;;;;;;;;;;;19.44;38.50;102194.19;2115380;27;2083;-38
2021/03/28 00:10:35;;;;;;;;;;;;;;;19.40;37.70;102193.94;2115524;28;1786;-38
2021/03/28 00:11:36;;;;;;;;;;;;;;;19.38;37.84;102201.06;2106791;28;2202;-39
2021/03/28 00:12:37;;;;;;;;;;;;;;;19.37;37.68;102197.38;2115640;27;1552;-35
2021/03/28 00:13:37;;;;;;;;;;;;;;;19.34;37.83;102196.00;2107961;28;1956;-37
2021/03/28 00:14:38;;;;;;;;;;;;;;;19.34;37.46;102200.84;2115815;28;1094;-37
2021/03/28 00:15:39;;;;;;;;;;;;;;;19.31;37.49;102193.78;2111154;28;1078;-39
2021/03/28 00:16:39;;;;;;;;;;;;;;;19.30;37.66;102197.78;2109068;28;2170;-41
2021/03/28 00:17:40;;;;;;;;;;;;;;;19.28;37.79;102200.09;2115150;28;1102;-33
2021/03/28 00:18:41;;;;;;;;;;;;;;;19.31;37.83;102190.94;2115484;28;1696;-36
2021/03/28 00:19:42;;;;;;;;;;;;;;;19.28;37.62;102190.72;2107785;28;2197;-39
2021/03/28 00:20:42;;;;;;;;;;;;;;;19.24;37.57;102187.69;2115128;28;1397;-35
2021/03/28 00:21:43;;;;;;;;;;;;;;;19.23;37.60;102199.31;2111070;28;2309;-37
2021/03/28 00:22:44;;;;;;;;;;;;;;;19.22;37.89;102194.81;2115445;28;1587;-36
2021/03/28 00:23:45;;;;;;;;;;;;;;;19.22;37.42;102197.66;2115436;28;1219;-35
2021/03/28 00:24:45;;;;;;;;;;;;;;;19.15;37.26;102198.00;2105755;28;2340;-36
2021/03/28 00:25:46;;;;;;;;;;;;;;;19.13;37.15;102192.66;2106129;28;1761;-38
2021/03/28 00:26:47;;;;;;;;;;;;;;;19.09;37.27;102194.41;2115053;28;1909;-34
2021/03/28 00:27:48;;;;;;;;;;;;;;;19.08;37.28;102194.75;2114789;28;1613;-36
2021/03/28 00:28:49;;;;;;;;;;;;;;;19.08;37.40;102197.56;2115706;28;1291;-36
2021/03/28 00:29:50;;;;;;;;;;;;;;;19.03;36.87;102201.31;2114190;28;2096;-33
2021/03/28 00:30:51;;;;;;;;;;;;;;;19.00;37.26;102196.25;2115713;28;1169;-35
2021/03/28 00:31:52;;;;;;;;;;;;;;;19.00;37.12;102195.44;2113644;28;2138;-35
2021/03/28 00:32:53;;;;;;;;;;;;;;;18.99;37.31;102193.72;2114774;28;1965;-35
2021/03/28 00:33:54;;;;;;;;;;;;;;;18.98;36.87;102197.72;2115810;27;1117;-33
2021/03/28 00:34:54;;;;;;;;;;;;;;;18.89;36.93;102195.56;2115614;28;1443;-32
2021/03/28 00:35:55;;;;;;;;;;;;;;;18.87;36.95;102202.69;2115572;28;1119;-34
2021/03/28 00:36:56;;;;;;;;;;;;;;;18.87;36.98;102202.69;2112156;28;2673;-35
2021/03/28 00:37:57;;;;;;;;;;;;;;;18.87;37.06;102205.53;2108921;28;2137;-36
2021/03/28 00:38:58;;;;;;;;;;;;;;;18.81;36.77;102201.06;2110508;28;2167;-35
2021/03/28 00:39:59;;;;;;;;;;;;;;;18.78;36.70;102204.53;2114402;28;1828;-36
2021/03/28 00:41:00;;;;;;;;;;;;;;;18.79;36.80;102201.38;2115718;28;1278;-35
2021/03/28 00:42:01;;;;;;;;;;;;;;;18.78;36.76;102205.34;2109072;28;2339;-34
2021/03/28 00:43:01;;;;;;;;;;;;;;;18.75;36.57;102205.13;2114625;28;1164;-36
2021/03/28 00:44:02;;;;;;;;;;;;;;;18.74;36.99;102209.06;2115399;28;1243;-36
2021/03/28 00:45:03;;;;;;;;;;;;;;;18.73;36.75;102205.38;2115393;28;1324;-32
2021/03/28 00:46:04;;;;;;;;;;;;;;;18.70;36.63;102206.00;2115302;28;1347;-34
2021/03/28 00:47:05;;;;;;;;;;;;;;;18.69;36.69;102208.00;2111769;28;2059;-37
2021/03/28 00:48:05;;;;;;;;;;;;;;;18.68;36.75;102205.44;2114998;28;1143;-34
2021/03/28 00:49:06;;;;;;;;;;;;;;;18.66;36.70;102205.78;2112815;28;1555;-39
2021/03/28 00:50:07;;;;;;;;;;;;;;;18.65;36.59;102206.06;2115794;28;1595;-33
2021/03/28 00:51:08;;;;;;;;;;;;;;;18.62;36.92;102210.34;2115476;28;1248;-36
2021/03/28 00:52:09;;;;;;;;;;;;;;;18.63;36.88;102202.69;2112938;28;2253;-35
2021/03/28 00:53:09;;;;;;;;;;;;;;;18.61;36.83;102208.66;2113156;28;2078;-35
2021/03/28 00:54:10;;;;;;;;;;;;;;;18.57;36.65;102204.72;2115549;28;1798;-35
2021/03/28 00:55:11;;;;;;;;;;;;;;;18.53;36.62;102212.19;2123135;27;1240;-34
2021/03/28 00:56:12;;;;;;;;;;;;;;;18.50;36.50;102211.91;2123226;27;1348;-31
2021/03/28 00:57:13;;;;;;;;;;;;;;;18.46;36.67;102214.50;2109814;28;2190;-34
2021/03/28 00:58:14;;;;;;;;;;;;;;;18.47;36.90;102210.56;2115202;28;1858;-34
2021/03/28 00:59:15;;;;;;;;;;;;;;;18.48;36.60;102212.22;2115160;28;1284;-34
2021/03/28 01:00:15;;;;;;;;;;;;;;;18.45;36.56;102210.84;2112513;28;2141;-33
2021/03/28 01:01:16;;;;;;;;;;;;;;;18.43;36.40;102210.28;2113838;28;1585;-34
2021/03/28 01:02:19;;;;;;;;;;;;;;;18.39;36.37;102202.72;2113047;28;2171;-33
2021/03/28 01:03:26;;;;;;;;;;;;;;;18.38;36.71;102209.50;2114069;28;1941;-35
2021/03/28 01:04:28;;;;;;;;;;;;;;;18.39;36.78;102211.22;2113913;28;1385;-36
2021/03/28 01:05:29;;;;;;;;;;;;;;;18.36;36.34;102220.28;2111482;28;2122;-32
2021/03/28 01:06:30;;;;;;;;;;;;;;;18.37;36.53;102216.34;2112517;28;1143;-33
2021/03/28 01:07:31;;;;;;;;;;;;;;;18.36;36.51;102217.47;2115071;28;1182;-35
2021/03/28 01:08:32;;;;;;;;;;;;;;;18.34;36.43;102216.94;2115428;28;1245;-34
2021/03/28 01:09:32;;;;;;;;;;;;;;;18.34;36.48;102214.09;2115263;28;1090;-37
2021/03/28 01:10:33;;;;;;;;;;;;;;;18.33;36.75;102218.94;2111716;28;2334;-36
2021/03/28 01:11:35;;;;;;;;;;;;;;;18.30;36.25;102227.16;2112163;28;2182;-37
2021/03/28 01:12:35;;;;;;;;;;;;;;;18.28;36.55;102229.44;2114118;28;1242;-33
2021/03/28 01:13:36;;;;;;;;;;;;;;;18.24;36.36;102223.53;2113155;28;2033;-34
2021/03/28 01:14:37;;;;;;;;;;;;;;;18.24;36.31;102223.53;2114959;28;1945;-37
2021/03/28 01:15:38;;;;;;;;;;;;;;;18.23;36.67;102228.38;2115290;28;1153;-37
2021/03/28 01:16:38;;;;;;;;;;;;;;;18.19;36.43;102230.09;2116746;28;1969;-35
2021/03/28 01:17:39;;;;;;;;;;;;;;;18.18;36.51;102234.09;2116376;27;1802;-36
2021/03/28 01:18:40;;;;;;;;;;;;;;;18.19;36.23;102223.59;2115385;28;2155;-30
2021/03/28 01:19:41;;;;;;;;;;;;;;;18.18;36.44;102228.44;2115165;28;1564;-35
2021/03/28 01:20:42;;;;;;;;;;;;;;;18.17;36.36;102229.59;2116997;28;1130;-37
2021/03/28 01:21:42;;;;;;;;;;;;;;;18.16;36.24;102230.69;2116586;28;1181;-39
2021/03/28 01:22:43;;;;;;;;;;;;;;;18.13;36.36;102228.47;2109754;28;2142;-38
2021/03/28 01:23:44;;;;;;;;;;;;;;;18.09;36.17;102227.41;2113846;28;1043;-36
2021/03/28 01:24:45;;;;;;;;;;;;;;;18.09;36.29;102233.06;2113206;28;1389;-38
2021/03/28 01:25:45;;;;;;;;;;;;;;;18.10;36.67;102229.06;2114957;28;2168;-35
2021/03/28 01:26:46;;;;;;;;;;;;;;;18.09;36.51;102238.72;2115158;28;1569;-33
2021/03/28 01:27:47;;;;;;;;;;;;;;;18.06;36.36;102230.84;2115857;28;2184;-37
2021/03/28 01:28:48;;;;;;;;;;;;;;;18.04;36.31;102230.28;2114243;28;2499;-38
2021/03/28 01:29:49;;;;;;;;;;;;;;;18.04;36.72;102221.78;2112670;28;2487;-34
2021/03/28 01:30:49;;;;;;;;;;;;;;;18.03;36.50;102234.25;2114208;28;2221;-37
2021/03/28 01:31:50;;;;;;;;;;;;;;;18.01;36.19;102242.19;2116997;28;1153;-33
2021/03/28 01:32:51;;;;;;;;;;;;;;;18.00;36.30;102227.22;2115618;28;2167;-36
2021/03/28 01:33:52;;;;;;;;;;;;;;;17.99;36.45;102236.81;2117159;28;2076;-37
2021/03/28 01:34:52;;;;;;;;;;;;;;;17.96;36.14;102239.41;2116914;28;1178;-33
2021/03/28 01:35:53;;;;;;;;;;;;;;;17.92;36.14;102243.97;2116773;27;2325;-33
2021/03/28 01:36:54;;;;;;;;;;;;;;;17.94;36.64;102239.69;2116477;28;2897;-36
2021/03/28 01:37:55;;;;;;;;;;;;;;;17.96;36.92;102231.75;2117029;28;1676;-36
2021/03/28 01:38:55;;;;;;;;;;;;;;;17.93;36.23;102231.53;2116304;28;1421;-34
2021/03/28 01:39:56;;;;;;;;;;;;;;;17.98;36.83;102226.66;2114185;28;1913;-33
2021/03/28 01:40:57;;;;;;;;;;;;;;;18.06;37.34;102225.16;2111705;28;2143;-34
2021/03/28 01:41:58;;;;;;;;;;;;;;;18.15;37.26;102226.19;2117091;28;1527;-39
2021/03/28 01:42:58;;;;;;;;;;;;;;;18.19;37.67;102224.44;2113375;28;2158;-37
2021/03/28 01:43:59;;;;;;;;;;;;;;;18.24;37.66;102230.06;2113902;28;1566;-37
2021/03/28 01:45:00;;;;;;;;;;;;;;;18.30;37.98;102230.84;2116880;28;1480;-41
2021/03/28 01:46:01;;;;;;;;;;;;;;;18.33;37.96;102235.94;2116807;28;1563;-32
2021/03/28 01:47:01;;;;;;;;;;;;;;;18.36;38.00;102226.81;2116539;28;1730;-31
2021/03/28 01:48:11;;;;;;;;;;;;;;;18.39;38.07;102231.88;2112441;28;1767;-31
2021/03/28 01:49:12;;;;;;;;;;;;;;;18.42;38.52;102227.63;2116688;28;1399;-31
2021/03/28 01:50:13;;;;;;;;;;;;;;;18.43;38.30;102224.47;2117095;28;1168;-31
2021/03/28 01:51:14;;;;;;;;;;;;;;;18.46;38.41;102225.84;2116696;28;1247;-38
2021/03/28 01:52:14;;;;;;;;;;;;;;;18.48;38.71;102224.41;2116718;28;1664;-31
2021/03/28 01:53:15;;;;;;;;;;;;;;;18.51;38.63;102230.63;2114503;28;2360;-32
2021/03/28 01:54:16;;;;;;;;;;;;;;;18.52;38.92;102220.97;2117244;28;1411;-31
2021/03/28 01:55:17;;;;;;;;;;;;;;;18.54;38.90;102227.19;2116635;28;1222;-30
2021/03/28 01:56:17;;;;;;;;;;;;;;;18.55;39.05;102224.03;2114436;28;2198;-31
2021/03/28 01:57:18;;;;;;;;;;;;;;;18.57;39.11;102218.91;2110634;28;2381;-34
2021/03/28 01:58:19;;;;;;;;;;;;;;;18.58;39.03;102214.94;2110457;28;2240;-31
2021/03/28 01:59:20;;;;;;;;;;;;;;;18.60;39.28;102215.47;2112639;28;2263;-33
2021/03/28 02:00:21;;;;;;;;;;;;;;;18.62;39.41;102218.84;2114217;28;2269;-31
2021/03/28 02:01:22;;;;;;;;;;;;;;;18.63;39.45;102217.69;2110012;28;2237;-32
2021/03/28 02:02:23;;;;;;;;;;;;;;;18.65;39.71;102218.25;2112176;28;2275;-31
2021/03/28 02:03:23;;;;;;;;;;;;;;;18.67;39.73;102217.94;2114444;28;4407;-30
2021/03/28 02:04:24;;;;;;;;;;;;;;;18.68;39.70;102214.78;2117134;28;1506;-31
2021/03/28 02:05:25;;;;;;;;;;;;;;;18.70;39.83;102226.69;2111948;28;1242;-31
2021/03/28 02:06:25;;;;;;;;;;;;;;;18.70;39.83;102223.84;2115552;28;2174;-31
2021/03/28 02:07:26;;;;;;;;;;;;;;;18.73;39.96;102225.22;2111502;28;2337;-32
2021/03/28 02:08:27;;;;;;;;;;;;;;;18.75;40.10;102222.16;2116116;28;2064;-32
2021/03/28 02:09:28;;;;;;;;;;;;;;;18.76;40.06;102221.00;2111819;28;1966;-33
2021/03/28 02:10:29;;;;;;;;;;;;;;;18.76;40.23;102224.66;2116969;28;1363;-32
2021/03/28 02:11:30;;;;;;;;;;;;;;;18.79;40.36;102223.22;2113061;28;2076;-33
2021/03/28 02:12:31;;;;;;;;;;;;;;;18.79;40.35;102217.53;2115682;28;1071;-37
2021/03/28 02:13:32;;;;;;;;;;;;;;;18.81;40.45;102221.75;2116480;28;1914;-37
2021/03/28 02:14:33;;;;;;;;;;;;;;;18.82;40.43;102216.94;2103901;28;1337;-31
2021/03/28 02:15:35;;;;;;;;;;;;;;;18.84;40.62;102223.16;2099152;28;1200;-34
2021/03/28 02:16:41;;;;;;;;;;;;;;;18.85;40.71;102222.81;2096597;28;2148;-33
2021/03/28 02:17:42;;;;;;;;;;;;;;;18.87;40.74;102226.22;2099872;28;1540;-37
2021/03/28 02:18:53;;;;;;;;;;;;;;;18.89;40.78;102228.75;2112906;28;1124;-33
2021/03/28 02:19:54;;;;;;;;;;;;;;;18.89;40.87;102225.91;2116051;28;1666;-32
2021/03/28 02:20:55;;;;;;;;;;;;;;;18.91;40.76;102220.75;2116634;28;1227;-35
2021/03/28 02:21:56;;;;;;;;;;;;;;;18.91;41.15;102221.63;2111320;28;2113;-32
2021/03/28 02:22:57;;;;;;;;;;;;;;;18.93;41.03;102221.31;2115642;28;2099;-31
2021/03/28 02:23:58;;;;;;;;;;;;;;;18.93;40.47;102224.16;2122131;27;2160;-35
2021/03/28 02:24:59;;;;;;;;;;;;;;;18.45;39.37;102218.50;2120947;27;1136;-34
2021/03/28 02:26:00;;;;;;;;;;;;;;;18.51;39.84;102228.63;2116358;28;1431;-33
2021/03/28 02:27:01;;;;;;;;;;;;;;;18.60;40.15;102223.97;2109857;28;2137;-31
2021/03/28 02:28:01;;;;;;;;;;;;;;;18.70;40.06;102226.69;2114760;28;1699;-31
2021/03/28 02:29:02;;;;;;;;;;;;;;;18.78;40.32;102232.88;2114439;28;1385;-31
2021/03/28 02:30:03;;;;;;;;;;;;;;;18.82;40.60;102225.44;2112615;28;1656;-33
2021/03/28 02:31:04;;;;;;;;;;;;;;;18.86;40.61;102223.69;2113700;28;1207;-31
2021/03/28 02:32:04;;;;;;;;;;;;;;;18.88;40.76;102222.25;2111926;28;2240;-35
2021/03/28 02:33:05;;;;;;;;;;;;;;;18.91;40.80;102226.44;2113979;28;1391;-35
2021/03/28 02:34:06;;;;;;;;;;;;;;;18.93;40.78;102229.81;2116719;28;1914;-32
2021/03/28 02:35:07;;;;;;;;;;;;;;;18.96;40.83;102225.53;2107158;28;1546;-33
2021/03/28 02:36:07;;;;;;;;;;;;;;;18.99;40.91;102230.59;2107402;28;1567;-31
2021/03/28 02:37:08;;;;;;;;;;;;;;;19.00;40.99;102235.13;2114912;28;2250;-34
2021/03/28 02:38:09;;;;;;;;;;;;;;;19.01;41.08;102226.31;2116790;28;1217;-33
2021/03/28 02:39:09;;;;;;;;;;;;;;;19.04;40.98;102230.53;2116192;28;1118;-33
2021/03/28 02:40:10;;;;;;;;;;;;;;;19.03;41.21;102232.53;2116473;28;1791;-32
2021/03/28 02:41:12;;;;;;;;;;;;;;;19.04;41.22;102237.03;2113266;28;2168;-32
2021/03/28 02:42:13;;;;;;;;;;;;;;;19.06;41.15;102234.75;2113171;28;1570;-31
2021/03/28 02:43:13;;;;;;;;;;;;;;;19.07;41.12;102233.59;2113607;28;1576;-33
2021/03/28 02:44:14;;;;;;;;;;;;;;;19.09;41.24;102236.97;2115423;28;1534;-33
2021/03/28 02:45:15;;;;;;;;;;;;;;;19.10;41.48;102238.66;2110837;28;2228;-32
2021/03/28 02:46:16;;;;;;;;;;;;;;;19.11;41.45;102231.84;2113745;28;2597;-31
2021/03/28 02:47:17;;;;;;;;;;;;;;;19.12;41.43;102236.34;2116294;28;1091;-31
2021/03/28 02:48:18;;;;;;;;;;;;;;;19.13;41.39;102238.06;2115129;28;1463;-31
2021/03/28 02:49:19;;;;;;;;;;;;;;;19.14;41.43;102239.72;2115958;28;1143;-31
2021/03/28 02:50:19;;;;;;;;;;;;;;;19.16;41.54;102244.25;2108918;28;2325;-31
2021/03/28 02:51:20;;;;;;;;;;;;;;;19.18;41.57;102241.94;2116364;28;1450;-31
2021/03/28 02:52:21;;;;;;;;;;;;;;;19.18;41.59;102241.94;2112388;28;2207;-31
2021/03/28 02:53:22;;;;;;;;;;;;;;;19.19;41.75;102241.66;2115467;28;1988;-31
2021/03/28 02:54:22;;;;;;;;;;;;;;;19.20;41.60;102242.50;2116390;28;1454;-33
2021/03/28 02:55:23;;;;;;;;;;;;;;;19.21;41.68;102249.84;2116186;28;1605;-31
2021/03/28 02:56:24;;;;;;;;;;;;;;;19.22;41.72;102237.38;2116325;28;1991;-31
2021/03/28 02:57:24;;;;;;;;;;;;;;;19.23;41.73;102244.72;2116519;28;1336;-32
2021/03/28 02:58:25;;;;;;;;;;;;;;;19.24;41.87;102243.56;2114845;28;2107;-32
2021/03/28 02:59:26;;;;;;;;;;;;;;;19.25;41.85;102242.44;2109986;28;2110;-32
2021/03/28 03:00:27;;;;;;;;;;;;;;;19.25;41.78;102234.75;2107981;28;2167;-32
2021/03/28 03:01:28;;;;;;;;;;;;;;;19.27;41.84;102246.66;2111434;28;2256;-35
2021/03/28 03:02:29;;;;;;;;;;;;;;;19.28;41.97;102244.66;2116259;28;1368;-32
2021/03/28 03:03:29;;;;;;;;;;;;;;;19.29;41.97;102243.50;2113473;28;3516;-32
2021/03/28 03:04:30;;;;;;;;;;;;;;;19.30;41.93;102245.19;2112716;28;2149;-42
2021/03/28 03:05:31;;;;;;;;;;;;;;;19.31;41.95;102246.88;2112224;28;2358;-35
2021/03/28 03:06:32;;;;;;;;;;;;;;;19.32;42.05;102245.72;2112986;28;1628;-33
2021/03/28 03:07:32;;;;;;;;;;;;;;;19.32;42.03;102248.53;2116260;28;1611;-32
2021/03/28 03:08:33;;;;;;;;;;;;;;;19.33;42.17;102253.09;2113536;28;2069;-31
2021/03/28 03:09:34;;;;;;;;;;;;;;;19.34;42.11;102249.09;2116473;28;1249;-31
2021/03/28 03:10:35;;;;;;;;;;;;;;;19.35;42.09;102250.75;2115918;28;1184;-31
2021/03/28 03:11:36;;;;;;;;;;;;;;;19.36;42.16;102256.16;2110555;28;2291;-37
2021/03/28 03:12:37;;;;;;;;;;;;;;;19.37;42.02;102254.16;2115610;28;2037;-32
2021/03/28 03:13:37;;;;;;;;;;;;;;;19.38;42.19;102258.69;2110095;28;2154;-31
2021/03/28 03:14:38;;;;;;;;;;;;;;;19.39;42.25;102259.53;2115356;28;2373;-31
2021/03/28 03:15:39;;;;;;;;;;;;;;;19.40;42.16;102255.53;2115607;28;2223;-32
2021/03/28 03:16:39;;;;;;;;;;;;;;;19.40;42.28;102256.38;2107851;28;2165;-33
2021/03/28 03:17:40;;;;;;;;;;;;;;;19.41;42.19;102258.06;2114012;28;2013;-32
2021/03/28 03:18:41;;;;;;;;;;;;;;;19.42;42.16;102258.91;2115994;28;1058;-32
2021/03/28 03:19:42;;;;;;;;;;;;;;;19.43;42.32;102254.91;2112822;28;2434;-34
2021/03/28 03:20:43;;;;;;;;;;;;;;;19.44;42.40;102262.31;2110094;28;1632;-37
2021/03/28 03:21:44;;;;;;;;;;;;;;;19.45;42.33;102261.97;2106828;28;2327;-39
2021/03/28 03:22:44;;;;;;;;;;;;;;;19.45;42.44;102266.81;2112738;28;1158;-32
2021/03/28 03:23:45;;;;;;;;;;;;;;;19.45;42.42;102264.81;2116013;28;1800;-31
2021/03/28 03:24:46;;;;;;;;;;;;;;;19.47;42.55;102267.34;2113324;28;2254;-34
2021/03/28 03:25:47;;;;;;;;;;;;;;;19.47;42.45;102264.50;2115650;28;2434;-32
2021/03/28 03:26:47;;;;;;;;;;;;;;;19.48;42.50;102271.88;2115526;28;1671;-37
2021/03/28 03:27:48;;;;;;;;;;;;;;;19.49;42.51;102271.56;2108587;28;2146;-33
2021/03/28 03:28:49;;;;;;;;;;;;;;;19.49;42.51;102265.91;2115408;27;2144;-31
2021/03/28 03:29:50;;;;;;;;;;;;;;;19.49;42.55;102271.56;2113574;28;3598;-31
2021/03/28 03:30:50;;;;;;;;;;;;;;;19.49;42.75;102270.72;2115311;28;1698;-33
2021/03/28 03:31:51;;;;;;;;;;;;;;;19.51;42.68;102274.09;2113566;28;2191;-34
2021/03/28 03:32:52;;;;;;;;;;;;;;;19.49;42.64;102268.75;2109007;28;2408;-32
2021/03/28 03:33:53;;;;;;;;;;;;;;;19.51;42.64;102274.09;2114798;28;2636;-31
2021/03/28 03:34:54;;;;;;;;;;;;;;;19.51;42.79;102269.25;2115337;28;1656;-33
2021/03/28 03:35:54;;;;;;;;;;;;;;;19.52;42.83;102268.13;2116161;28;1145;-31
2021/03/28 03:36:55;;;;;;;;;;;;;;;19.53;42.63;102272.63;2111467;28;2040;-38
2021/03/28 03:37:56;;;;;;;;;;;;;;;19.53;42.66;102272.63;2112323;28;2091;-32
2021/03/28 03:38:57;;;;;;;;;;;;;;;19.54;42.78;102279.97;2112931;28;1162;-32
2021/03/28 03:39:57;;;;;;;;;;;;;;;19.54;42.82;102274.31;2109131;28;2129;-32
2021/03/28 03:40:58;;;;;;;;;;;;;;;19.54;42.93;102276.31;2110275;28;2260;-33
2021/03/28 03:41:59;;;;;;;;;;;;;;;19.55;42.78;102276.03;2115642;28;1805;-35
2021/03/28 03:42:59;;;;;;;;;;;;;;;19.56;42.94;102272.00;2115537;28;1732;-32
2021/03/28 03:44:00;;;;;;;;;;;;;;;19.56;42.93;102277.69;2114770;28;1230;-32
2021/03/28 03:45:01;;;;;;;;;;;;;;;19.57;42.94;102279.41;2115384;28;2148;-32
2021/03/28 03:46:02;;;;;;;;;;;;;;;19.58;42.90;102275.41;2114901;28;2058;-32
2021/03/28 03:47:03;;;;;;;;;;;;;;;19.58;43.06;102280.25;2112742;28;2172;-32
2021/03/28 03:48:03;;;;;;;;;;;;;;;19.58;43.19;102275.41;2113497;28;2269;-31
2021/03/28 03:49:04;;;;;;;;;;;;;;;19.62;43.10;102280.47;2114642;28;2163;-33
2021/03/28 03:50:05;;;;;;;;;;;;;;;19.62;42.97;102283.28;2115278;28;1166;-32
2021/03/28 03:51:06;;;;;;;;;;;;;;;19.63;43.06;102284.97;2114643;28;2245;-33
2021/03/28 03:52:06;;;;;;;;;;;;;;;19.63;43.02;102276.44;2115388;28;1344;-34
2021/03/28 03:53:07;;;;;;;;;;;;;;;19.63;43.05;102283.00;2113459;28;2291;-34
2021/03/28 03:54:08;;;;;;;;;;;;;;;19.64;43.03;102281.00;2114387;28;1909;-33
2021/03/28 03:55:09;;;;;;;;;;;;;;;19.65;43.17;102274.16;2109276;28;2096;-31
2021/03/28 03:56:10;;;;;;;;;;;;;;;19.65;43.22;102275.00;2110581;28;1569;-33
2021/03/28 03:57:10;;;;;;;;;;;;;;;19.65;43.05;102279.84;2112582;28;2255;-31
2021/03/28 03:58:11;;;;;;;;;;;;;;;19.65;43.20;102274.16;2116006;28;2186;-31
2021/03/28 03:59:13;;;;;;;;;;;;;;;19.66;43.21;102275.91;2110526;28;2344;-32
2021/03/28 04:00:14;;;;;;;;;;;;;;;19.67;43.24;102283.25;2114883;28;1998;-39
2021/03/28 04:01:15;;;;;;;;;;;;;;;19.67;43.19;102274.72;2115565;28;1319;-32
2021/03/28 04:02:16;;;;;;;;;;;;;;;19.67;43.21;102284.09;2115596;28;1629;-38
2021/03/28 04:03:17;;;;;;;;;;;;;;;19.69;43.18;102278.13;2109407;28;3709;-32
2021/03/28 04:04:17;;;;;;;;;;;;;;;19.69;43.31;102281.78;2114260;28;2121;-31
2021/03/28 04:05:18;;;;;;;;;;;;;;;19.70;43.23;102279.78;2110617;28;2160;-36
2021/03/28 04:06:19;;;;;;;;;;;;;;;19.69;43.37;102275.28;2111623;28;2110;-34
2021/03/28 04:07:20;;;;;;;;;;;;;;;19.70;43.33;102271.28;2114423;28;1995;-31
2021/03/28 04:08:20;;;;;;;;;;;;;;;19.70;43.41;102276.94;2109639;28;2137;-36
2021/03/28 04:09:22;;;;;;;;;;;;;;;19.70;43.28;102279.78;2112673;28;2132;-33
2021/03/28 04:10:23;;;;;;;;;;;;;;;19.71;43.42;102287.16;2112646;28;2152;-31
2021/03/28 04:11:23;;;;;;;;;;;;;;;19.71;43.40;102285.19;2109607;28;2140;-33
2021/03/28 04:12:24;;;;;;;;;;;;;;;19.71;43.45;102279.50;2113722;28;1275;-31
2021/03/28 04:13:25;;;;;;;;;;;;;;;19.72;43.41;102286.84;2109217;28;2264;-31
2021/03/28 04:14:26;;;;;;;;;;;;;;;19.72;43.54;102277.50;2113458;28;2231;-32
2021/03/28 04:15:26;;;;;;;;;;;;;;;19.73;43.52;102287.69;2114588;28;2022;-35
2021/03/28 04:16:27;;;;;;;;;;;;;;;19.73;43.47;102282.00;2110972;28;2116;-32
2021/03/28 04:17:28;;;;;;;;;;;;;;;19.73;43.35;102288.53;2110209;28;2092;-33
2021/03/28 04:18:29;;;;;;;;;;;;;;;19.75;43.53;102293.91;2107763;28;2216;-32
2021/03/28 04:19:29;;;;;;;;;;;;;;;19.74;43.51;102290.22;2112737;28;1202;-30
2021/03/28 04:20:30;;;;;;;;;;;;;;;19.76;43.56;102281.38;2115076;28;1098;-33
2021/03/28 04:21:31;;;;;;;;;;;;;;;19.76;43.64;102282.22;2114624;28;2122;-38
2021/03/28 04:22:32;;;;;;;;;;;;;;;19.76;43.53;102270.03;2110493;28;2607;-32
2021/03/28 04:23:33;;;;;;;;;;;;;;;19.76;43.53;102276.53;2114722;28;1989;-31
2021/03/28 04:24:34;;;;;;;;;;;;;;;19.77;43.52;102269.72;2114776;28;2194;-31
2021/03/28 04:25:35;;;;;;;;;;;;;;;19.78;43.60;102273.41;2115447;28;1114;-33
2021/03/28 04:26:36;;;;;;;;;;;;;;;19.78;43.53;102270.56;2115600;28;1659;-32
2021/03/28 04:27:36;;;;;;;;;;;;;;;19.78;43.67;102273.41;2115239;28;1298;-33
2021/03/28 04:28:37;;;;;;;;;;;;;;;19.78;43.66;102267.72;2115449;28;2287;-34
2021/03/28 04:29:38;;;;;;;;;;;;;;;19.79;43.73;102275.09;2113140;28;3926;-37
2021/03/28 04:30:39;;;;;;;;;;;;;;;19.78;43.71;102271.41;2114272;28;1092;-31
2021/03/28 04:31:39;;;;;;;;;;;;;;;19.79;43.70;102270.28;2115105;28;1706;-30
2021/03/28 04:32:40;;;;;;;;;;;;;;;19.80;43.79;102268.28;2112940;28;2531;-35
2021/03/28 04:33:41;;;;;;;;;;;;;;;19.80;43.81;102269.13;2115427;28;1905;-31
2021/03/28 04:34:42;;;;;;;;;;;;;;;19.82;43.91;102265.94;2115363;28;1716;-31
2021/03/28 04:35:43;;;;;;;;;;;;;;;19.82;43.79;102265.94;2112077;28;2004;-31
2021/03/28 04:36:43;;;;;;;;;;;;;;;19.82;43.65;102265.94;2115212;28;2072;-32
2021/03/28 04:37:44;;;;;;;;;;;;;;;19.83;44.00;102270.50;2115507;28;1309;-31
2021/03/28 04:38:45;;;;;;;;;;;;;;;19.84;43.94;102262.81;2115338;28;1194;-35
2021/03/28 04:39:46;;;;;;;;;;;;;;;19.83;43.86;102267.66;2114871;28;1682;-33
2021/03/28 04:40:46;;;;;;;;;;;;;;;19.84;43.94;102260.81;2115635;28;1138;-33
2021/03/28 04:41:47;;;;;;;;;;;;;;;19.84;44.01;102266.47;2115240;28;1356;-32
2021/03/28 04:42:48;;;;;;;;;;;;;;;19.84;44.14;102268.50;2115408;28;1604;-32
2021/03/28 04:43:49;;;;;;;;;;;;;;;19.85;43.97;102271.03;2112576;28;2240;-31
2021/03/28 04:44:49;;;;;;;;;;;;;;;19.84;44.03;102269.31;2113988;28;1560;-36
2021/03/28 04:45:50;;;;;;;;;;;;;;;19.86;44.16;102269.88;2113887;28;2004;-32
2021/03/28 04:46:54;;;;;;;;;;;;;;;19.85;44.08;102278.69;2111007;28;2181;-34
2021/03/28 04:47:55;;;;;;;;;;;;;;;19.86;44.19;102277.56;2109445;28;2134;-34
2021/03/28 04:48:55;;;;;;;;;;;;;;;19.86;44.22;102280.41;2112229;28;1417;-34
2021/03/28 04:49:56;;;;;;;;;;;;;;;19.86;44.22;102277.56;2110938;28;2103;-32
2021/03/28 04:50:57;;;;;;;;;;;;;;;19.86;44.21;102272.72;2115174;28;1541;-32
2021/03/28 04:51:58;;;;;;;;;;;;;;;19.86;44.32;102281.22;2115316;28;1554;-34
2021/03/28 04:52:58;;;;;;;;;;;;;;;19.87;44.25;102282.91;2115714;28;1179;-31
2021/03/28 04:53:59;;;;;;;;;;;;;;;19.87;44.29;102277.22;2103600;28;2062;-32
2021/03/28 04:55:00;;;;;;;;;;;;;;;19.88;44.29;102281.78;2104626;28;2535;-31
2021/03/28 04:56:01;;;;;;;;;;;;;;;19.88;44.31;102284.59;2115318;28;1517;-34
2021/03/28 04:57:02;;;;;;;;;;;;;;;19.88;44.47;102284.59;2114099;28;2122;-35
2021/03/28 04:58:02;;;;;;;;;;;;;;;19.88;44.38;102278.94;2112578;28;1998;-32
2021/03/28 04:59:03;;;;;;;;;;;;;;;19.88;44.50;102276.09;2111960;28;2057;-44
2021/03/28 05:00:04;;;;;;;;;;;;;;;19.89;44.54;102291.97;2107617;28;2571;-31
2021/03/28 05:01:05;;;;;;;;;;;;;;;19.89;44.53;102282.59;2114659;28;1760;-33
2021/03/28 05:02:05;;;;;;;;;;;;;;;19.89;44.46;102280.59;2115527;28;1558;-31
2021/03/28 05:03:06;;;;;;;;;;;;;;;19.89;44.46;102277.75;2114941;28;1600;-33
2021/03/28 05:04:07;;;;;;;;;;;;;;;19.89;44.58;102286.28;2115359;28;1350;-39
2021/03/28 05:05:07;;;;;;;;;;;;;;;19.91;44.66;102284.00;2115217;28;1548;-31
2021/03/28 05:06:08;;;;;;;;;;;;;;;19.91;44.65;102286.81;2115146;28;1048;-32
2021/03/28 05:07:09;;;;;;;;;;;;;;;19.93;44.62;102295.03;2110526;28;2119;-31
2021/03/28 05:08:10;;;;;;;;;;;;;;;19.93;44.81;102286.50;2112284;28;2196;-31
2021/03/28 05:09:14;;;;;;;;;;;;;;;19.94;44.66;102282.53;2112775;28;2336;-38
2021/03/28 05:10:15;;;;;;;;;;;;;;;19.93;44.71;102297.84;2115404;28;1042;-31
2021/03/28 05:11:16;;;;;;;;;;;;;;;19.93;44.79;102295.88;2114003;28;2132;-32
2021/03/28 05:12:16;;;;;;;;;;;;;;;19.94;44.92;102294.72;2111446;28;2099;-33
2021/03/28 05:13:17;;;;;;;;;;;;;;;19.94;44.88;102291.88;2115056;28;1572;-31
2021/03/28 05:14:18;;;;;;;;;;;;;;;19.96;44.97;102300.09;2115258;28;1967;-32
2021/03/28 05:15:19;;;;;;;;;;;;;;;19.96;44.99;102298.09;2114907;28;1300;-31
2021/03/28 05:16:19;;;;;;;;;;;;;;;19.96;44.94;102300.09;2114049;28;2063;-32
2021/03/28 05:17:20;;;;;;;;;;;;;;;19.95;45.07;102290.72;2111421;28;2095;-32